sensor_id;sensor_type;location;lat;lon;timestamp;temperature;humidity
2571;DHT22;1295;51.130;6.732;2022-12-20T00:02:05;6.10;99.90
2571;DHT22;1295;51.130;6.732;2022-12-20T00:04:31;6.10;99.90
2571;DHT22;1295;51.130;6.732;2022-12-20T00:06:56;6.40;99.90
2571;DHT22;1295;51.130;6.732;2022-12-20T00:09:22;6.30;99.90
2571;DHT22;1295;51.130;6.732;2022-12-20T00:11:48;6.30;99.90
2571;DHT22;1295;51.130;6.732;2022-12-20T00:14:13;6.10;99.90
2571;DHT22;1295;51.130;6.732;2022-12-20T00:16:47;6.70;99.90
2571;DHT22;1295;51.130;6.732;2022-12-20T00:19:12;6.70;99.90
2571;DHT22;1295;51.130;6.732;2022-12-20T00:21:38;6.30;99.90
2571;DHT22;1295;51.130;6.732;2022-12-20T00:24:04;6.20;99.90
2571;DHT22;1295;51.130;6.732;2022-12-20T00:26:31;6.80;99.90
2571;DHT22;1295;51.130;6.732;2022-12-20T00:28:56;6.60;99.90
2571;DHT22;1295;51.130;6.732;2022-12-20T00:31:22;6.40;99.90
2571;DHT22;1295;51.130;6.732;2022-12-20T00:33:48;6.50;99.90
2571;DHT22;1295;51.130;6.732;2022-12-20T00:36:13;6.60;99.90
2571;DHT22;1295;51.130;6.732;2022-12-20T00:38:44;8.00;99.90
2571;DHT22;1295;51.130;6.732;2022-12-20T00:41:10;8.20;99.90
2571;DHT22;1295;51.130;6.732;2022-12-20T00:43:35;7.60;99.90
2571;DHT22;1295;51.130;6.732;2022-12-20T00:46:00;7.60;99.90
2571;DHT22;1295;51.130;6.732;2022-12-20T00:48:26;7.60;99.90
2571;DHT22;1295;51.130;6.732;2022-12-20T00:50:51;7.50;99.90
2571;DHT22;1295;51.130;6.732;2022-12-20T00:53:17;7.50;99.90
2571;DHT22;1295;51.130;6.732;2022-12-20T00:55:44;7.40;99.90
2571;DHT22;1295;51.130;6.732;2022-12-20T00:58:09;7.50;99.90
2571;DHT22;1295;51.130;6.732;2022-12-20T01:00:35;7.30;99.90
2571;DHT22;1295;51.130;6.732;2022-12-20T01:03:00;7.40;99.90
2571;DHT22;1295;51.130;6.732;2022-12-20T01:05:26;7.20;99.90
2571;DHT22;1295;51.130;6.732;2022-12-20T01:07:52;7.10;99.90
2571;DHT22;1295;51.130;6.732;2022-12-20T01:10:17;7.40;99.90
2571;DHT22;1295;51.130;6.732;2022-12-20T01:12:43;7.00;99.90
2571;DHT22;1295;51.130;6.732;2022-12-20T01:15:14;7.10;99.90
2571;DHT22;1295;51.130;6.732;2022-12-20T01:17:40;6.80;99.90
2571;DHT22;1295;51.130;6.732;2022-12-20T01:20:06;6.80;99.90
2571;DHT22;1295;51.130;6.732;2022-12-20T01:22:32;6.70;99.90
2571;DHT22;1295;51.130;6.732;2022-12-20T01:24:58;6.20;99.90
2571;DHT22;1295;51.130;6.732;2022-12-20T01:27:23;6.20;99.90
2571;DHT22;1295;51.130;6.732;2022-12-20T01:29:49;6.20;99.90
2571;DHT22;1295;51.130;6.732;2022-12-20T01:32:15;6.50;99.90
2571;DHT22;1295;51.130;6.732;2022-12-20T01:34:40;6.20;99.90
2571;DHT22;1295;51.130;6.732;2022-12-20T01:37:06;6.70;99.90
2571;DHT22;1295;51.130;6.732;2022-12-20T01:39:32;6.50;99.90
2571;DHT22;1295;51.130;6.732;2022-12-20T01:41:57;6.70;99.90
2571;DHT22;1295;51.130;6.732;2022-12-20T01:44:50;6.50;99.90
2571;DHT22;1295;51.130;6.732;2022-12-20T01:47:16;6.50;99.90
2571;DHT22;1295;51.130;6.732;2022-12-20T01:49:42;6.70;99.90
2571;DHT22;1295;51.130;6.732;2022-12-20T01:52:08;7.00;99.90
2571;DHT22;1295;51.130;6.732;2022-12-20T01:54:38;6.80;99.90
2571;DHT22;1295;51.130;6.732;2022-12-20T01:57:05;7.00;99.90
2571;DHT22;1295;51.130;6.732;2022-12-20T01:59:29;6.90;99.90
2571;DHT22;1295;51.130;6.732;2022-12-20T02:01:56;7.00;99.90
2571;DHT22;1295;51.130;6.732;2022-12-20T02:04:22;7.30;99.90
2571;DHT22;1295;51.130;6.732;2022-12-20T02:06:48;7.30;99.90
2571;DHT22;1295;51.130;6.732;2022-12-20T02:09:13;7.60;99.90
2571;DHT22;1295;51.130;6.732;2022-12-20T02:12:19;7.50;99.90
2571;DHT22;1295;51.130;6.732;2022-12-20T02:14:41;7.40;99.90
2571;DHT22;1295;51.130;6.732;2022-12-20T02:20:25;8.00;99.90
2571;DHT22;1295;51.130;6.732;2022-12-20T02:25:51;7.40;99.90
2571;DHT22;1295;51.130;6.732;2022-12-20T02:31:09;7.40;99.90
2571;DHT22;1295;51.130;6.732;2022-12-20T02:33:33;7.40;99.90
2571;DHT22;1295;51.130;6.732;2022-12-20T02:35:58;7.20;99.90
2571;DHT22;1295;51.130;6.732;2022-12-20T02:38:28;7.20;99.90
2571;DHT22;1295;51.130;6.732;2022-12-20T02:40:52;6.70;99.90
2571;DHT22;1295;51.130;6.732;2022-12-20T02:43:16;7.00;99.90
2571;DHT22;1295;51.130;6.732;2022-12-20T02:45:58;7.00;99.90
2571;DHT22;1295;51.130;6.732;2022-12-20T02:48:24;7.40;99.90
2571;DHT22;1295;51.130;6.732;2022-12-20T02:50:50;7.20;99.90
2571;DHT22;1295;51.130;6.732;2022-12-20T02:53:15;7.60;99.90
2571;DHT22;1295;51.130;6.732;2022-12-20T02:55:44;7.00;99.90
2571;DHT22;1295;51.130;6.732;2022-12-20T02:58:11;6.90;99.90
2571;DHT22;1295;51.130;6.732;2022-12-20T03:00:36;7.00;99.90
2571;DHT22;1295;51.130;6.732;2022-12-20T03:03:00;7.40;99.90
2571;DHT22;1295;51.130;6.732;2022-12-20T03:05:32;7.20;99.90
2571;DHT22;1295;51.130;6.732;2022-12-20T03:07:57;7.20;99.90
2571;DHT22;1295;51.130;6.732;2022-12-20T03:10:23;6.90;99.90
2571;DHT22;1295;51.130;6.732;2022-12-20T03:12:49;6.80;99.90
2571;DHT22;1295;51.130;6.732;2022-12-20T03:15:14;6.80;99.90
2571;DHT22;1295;51.130;6.732;2022-12-20T03:17:41;6.80;99.90
2571;DHT22;1295;51.130;6.732;2022-12-20T03:20:07;6.80;99.90
2571;DHT22;1295;51.130;6.732;2022-12-20T03:22:33;6.80;99.90
2571;DHT22;1295;51.130;6.732;2022-12-20T03:24:59;6.70;99.90
2571;DHT22;1295;51.130;6.732;2022-12-20T03:27:25;6.80;99.90
2571;DHT22;1295;51.130;6.732;2022-12-20T03:29:51;6.80;99.90
2571;DHT22;1295;51.130;6.732;2022-12-20T03:32:16;6.50;99.90
2571;DHT22;1295;51.130;6.732;2022-12-20T03:34:42;6.60;99.90
2571;DHT22;1295;51.130;6.732;2022-12-20T03:37:08;6.70;99.90
2571;DHT22;1295;51.130;6.732;2022-12-20T03:39:33;6.60;99.90
2571;DHT22;1295;51.130;6.732;2022-12-20T03:41:59;6.60;99.90
2571;DHT22;1295;51.130;6.732;2022-12-20T03:44:24;6.70;99.90
2571;DHT22;1295;51.130;6.732;2022-12-20T03:46:50;6.50;99.90
2571;DHT22;1295;51.130;6.732;2022-12-20T03:49:16;6.60;99.90
2571;DHT22;1295;51.130;6.732;2022-12-20T03:51:41;6.50;99.90
2571;DHT22;1295;51.130;6.732;2022-12-20T03:54:07;6.50;99.90
2571;DHT22;1295;51.130;6.732;2022-12-20T03:56:32;6.50;99.90
2571;DHT22;1295;51.130;6.732;2022-12-20T03:58:59;6.70;99.90
2571;DHT22;1295;51.130;6.732;2022-12-20T04:01:25;6.70;99.90
2571;DHT22;1295;51.130;6.732;2022-12-20T04:03:50;6.70;99.90
2571;DHT22;1295;51.130;6.732;2022-12-20T04:06:16;6.80;99.90
2571;DHT22;1295;51.130;6.732;2022-12-20T04:08:41;6.70;99.90
2571;DHT22;1295;51.130;6.732;2022-12-20T04:11:07;6.60;99.90
2571;DHT22;1295;51.130;6.732;2022-12-20T04:13:38;6.70;99.90
2571;DHT22;1295;51.130;6.732;2022-12-20T04:16:04;6.10;99.90
2571;DHT22;1295;51.130;6.732;2022-12-20T04:18:30;6.50;99.90
2571;DHT22;1295;51.130;6.732;2022-12-20T04:20:55;6.40;99.90
2571;DHT22;1295;51.130;6.732;2022-12-20T04:23:21;6.70;99.90
2571;DHT22;1295;51.130;6.732;2022-12-20T04:25:47;6.40;99.90
2571;DHT22;1295;51.130;6.732;2022-12-20T04:28:13;6.50;99.90
2571;DHT22;1295;51.130;6.732;2022-12-20T04:30:38;6.50;99.90
2571;DHT22;1295;51.130;6.732;2022-12-20T04:33:04;6.50;99.90
2571;DHT22;1295;51.130;6.732;2022-12-20T04:35:30;6.40;99.90
2571;DHT22;1295;51.130;6.732;2022-12-20T04:37:56;6.40;99.90
2571;DHT22;1295;51.130;6.732;2022-12-20T04:40:22;6.40;99.90
2571;DHT22;1295;51.130;6.732;2022-12-20T04:42:47;6.60;99.90
2571;DHT22;1295;51.130;6.732;2022-12-20T04:45:13;6.40;99.90
2571;DHT22;1295;51.130;6.732;2022-12-20T04:47:39;6.30;99.90
2571;DHT22;1295;51.130;6.732;2022-12-20T04:50:06;6.20;99.90
2571;DHT22;1295;51.130;6.732;2022-12-20T04:52:32;6.40;99.90
2571;DHT22;1295;51.130;6.732;2022-12-20T04:55:05;6.40;99.90
2571;DHT22;1295;51.130;6.732;2022-12-20T04:57:30;6.50;99.90
2571;DHT22;1295;51.130;6.732;2022-12-20T04:59:56;6.00;99.90
2571;DHT22;1295;51.130;6.732;2022-12-20T05:02:21;6.20;99.90
2571;DHT22;1295;51.130;6.732;2022-12-20T05:04:47;6.60;99.90
2571;DHT22;1295;51.130;6.732;2022-12-20T05:07:13;6.50;99.90
2571;DHT22;1295;51.130;6.732;2022-12-20T05:09:38;6.30;99.90
2571;DHT22;1295;51.130;6.732;2022-12-20T05:12:04;6.40;99.90
2571;DHT22;1295;51.130;6.732;2022-12-20T05:14:31;6.20;99.90
2571;DHT22;1295;51.130;6.732;2022-12-20T05:16:56;6.20;99.90
2571;DHT22;1295;51.130;6.732;2022-12-20T05:19:22;6.50;99.90
2571;DHT22;1295;51.130;6.732;2022-12-20T05:21:48;6.20;99.90
2571;DHT22;1295;51.130;6.732;2022-12-20T05:24:19;6.20;99.90
2571;DHT22;1295;51.130;6.732;2022-12-20T05:26:51;6.40;99.90
2571;DHT22;1295;51.130;6.732;2022-12-20T05:29:17;6.50;99.90
2571;DHT22;1295;51.130;6.732;2022-12-20T05:31:42;6.20;99.90
2571;DHT22;1295;51.130;6.732;2022-12-20T05:34:08;6.20;99.90
2571;DHT22;1295;51.130;6.732;2022-12-20T05:36:33;6.20;99.90
2571;DHT22;1295;51.130;6.732;2022-12-20T05:38:59;6.50;99.90
2571;DHT22;1295;51.130;6.732;2022-12-20T05:41:25;6.20;99.90
2571;DHT22;1295;51.130;6.732;2022-12-20T05:43:50;6.10;99.90
2571;DHT22;1295;51.130;6.732;2022-12-20T05:46:16;6.40;99.90
2571;DHT22;1295;51.130;6.732;2022-12-20T05:48:42;6.60;99.90
2571;DHT22;1295;51.130;6.732;2022-12-20T05:51:07;6.30;99.90
2571;DHT22;1295;51.130;6.732;2022-12-20T05:53:33;6.40;99.90
2571;DHT22;1295;51.130;6.732;2022-12-20T05:55:59;6.40;99.90
2571;DHT22;1295;51.130;6.732;2022-12-20T05:58:25;6.60;99.90
2571;DHT22;1295;51.130;6.732;2022-12-20T06:00:50;6.60;99.90
2571;DHT22;1295;51.130;6.732;2022-12-20T06:03:17;6.70;99.90
2571;DHT22;1295;51.130;6.732;2022-12-20T06:05:43;6.60;99.90
2571;DHT22;1295;51.130;6.732;2022-12-20T06:08:08;6.60;99.90
2571;DHT22;1295;51.130;6.732;2022-12-20T06:10:34;6.50;99.90
2571;DHT22;1295;51.130;6.732;2022-12-20T06:13:00;6.50;99.90
2571;DHT22;1295;51.130;6.732;2022-12-20T06:15:25;6.40;99.90
2571;DHT22;1295;51.130;6.732;2022-12-20T06:17:51;6.60;99.90
2571;DHT22;1295;51.130;6.732;2022-12-20T06:20:16;6.80;99.90
2571;DHT22;1295;51.130;6.732;2022-12-20T06:22:42;6.60;99.90
2571;DHT22;1295;51.130;6.732;2022-12-20T06:25:08;6.70;99.90
2571;DHT22;1295;51.130;6.732;2022-12-20T06:27:35;6.90;99.90
2571;DHT22;1295;51.130;6.732;2022-12-20T06:30:00;6.90;99.90
2571;DHT22;1295;51.130;6.732;2022-12-20T06:32:26;6.60;99.90
2571;DHT22;1295;51.130;6.732;2022-12-20T06:34:51;6.60;99.90
2571;DHT22;1295;51.130;6.732;2022-12-20T06:37:17;6.90;99.90
2571;DHT22;1295;51.130;6.732;2022-12-20T06:39:42;6.80;99.90
2571;DHT22;1295;51.130;6.732;2022-12-20T06:42:08;6.60;99.90
2571;DHT22;1295;51.130;6.732;2022-12-20T06:44:34;6.50;99.90
2571;DHT22;1295;51.130;6.732;2022-12-20T06:47:00;6.80;99.90
2571;DHT22;1295;51.130;6.732;2022-12-20T06:49:25;6.70;99.90
2571;DHT22;1295;51.130;6.732;2022-12-20T06:51:51;6.50;99.90
2571;DHT22;1295;51.130;6.732;2022-12-20T06:54:17;6.40;99.90
2571;DHT22;1295;51.130;6.732;2022-12-20T06:56:43;6.40;99.90
2571;DHT22;1295;51.130;6.732;2022-12-20T06:59:08;6.20;99.90
2571;DHT22;1295;51.130;6.732;2022-12-20T07:01:34;6.60;99.90
2571;DHT22;1295;51.130;6.732;2022-12-20T07:03:59;6.70;99.90
2571;DHT22;1295;51.130;6.732;2022-12-20T07:06:25;6.90;99.90
2571;DHT22;1295;51.130;6.732;2022-12-20T07:08:51;6.50;99.90
2571;DHT22;1295;51.130;6.732;2022-12-20T07:11:16;6.50;99.90
2571;DHT22;1295;51.130;6.732;2022-12-20T07:13:42;6.50;99.90
2571;DHT22;1295;51.130;6.732;2022-12-20T07:16:08;6.30;99.90
2571;DHT22;1295;51.130;6.732;2022-12-20T07:18:33;6.30;99.90
2571;DHT22;1295;51.130;6.732;2022-12-20T07:20:59;6.50;99.90
2571;DHT22;1295;51.130;6.732;2022-12-20T07:23:25;6.30;99.90
2571;DHT22;1295;51.130;6.732;2022-12-20T07:25:53;6.40;99.90
2571;DHT22;1295;51.130;6.732;2022-12-20T07:28:18;6.50;99.90
2571;DHT22;1295;51.130;6.732;2022-12-20T07:30:44;6.50;99.90
2571;DHT22;1295;51.130;6.732;2022-12-20T07:33:10;6.60;99.90
2571;DHT22;1295;51.130;6.732;2022-12-20T07:35:35;6.60;99.90
2571;DHT22;1295;51.130;6.732;2022-12-20T07:38:01;6.40;99.90
2571;DHT22;1295;51.130;6.732;2022-12-20T07:40:27;6.60;99.90
2571;DHT22;1295;51.130;6.732;2022-12-20T07:42:52;6.70;99.90
2571;DHT22;1295;51.130;6.732;2022-12-20T07:45:18;6.60;99.90
2571;DHT22;1295;51.130;6.732;2022-12-20T07:47:43;6.40;99.90
2571;DHT22;1295;51.130;6.732;2022-12-20T07:50:09;6.50;99.90
2571;DHT22;1295;51.130;6.732;2022-12-20T07:52:35;6.50;99.90
2571;DHT22;1295;51.130;6.732;2022-12-20T07:55:01;6.60;99.90
2571;DHT22;1295;51.130;6.732;2022-12-20T07:57:28;6.50;99.90
2571;DHT22;1295;51.130;6.732;2022-12-20T07:59:53;6.60;99.90
2571;DHT22;1295;51.130;6.732;2022-12-20T08:02:19;6.50;99.90
2571;DHT22;1295;51.130;6.732;2022-12-20T08:04:43;6.50;99.90
2571;DHT22;1295;51.130;6.732;2022-12-20T08:07:09;6.70;99.90
2571;DHT22;1295;51.130;6.732;2022-12-20T08:09:35;6.80;99.90
2571;DHT22;1295;51.130;6.732;2022-12-20T08:12:00;6.70;99.90
2571;DHT22;1295;51.130;6.732;2022-12-20T08:14:25;6.60;99.90
2571;DHT22;1295;51.130;6.732;2022-12-20T08:16:52;6.60;99.90
2571;DHT22;1295;51.130;6.732;2022-12-20T08:19:17;6.60;99.90
2571;DHT22;1295;51.130;6.732;2022-12-20T08:21:42;6.70;99.90
2571;DHT22;1295;51.130;6.732;2022-12-20T08:24:09;6.50;99.90
2571;DHT22;1295;51.130;6.732;2022-12-20T08:26:38;6.40;99.90
2571;DHT22;1295;51.130;6.732;2022-12-20T08:29:03;6.70;99.90
2571;DHT22;1295;51.130;6.732;2022-12-20T08:31:29;6.80;99.90
2571;DHT22;1295;51.130;6.732;2022-12-20T08:33:54;6.60;99.90
2571;DHT22;1295;51.130;6.732;2022-12-20T08:36:20;6.80;99.90
2571;DHT22;1295;51.130;6.732;2022-12-20T08:38:45;6.70;99.90
2571;DHT22;1295;51.130;6.732;2022-12-20T08:41:12;6.70;99.90
2571;DHT22;1295;51.130;6.732;2022-12-20T08:43:37;6.70;99.90
2571;DHT22;1295;51.130;6.732;2022-12-20T08:46:03;6.60;99.90
2571;DHT22;1295;51.130;6.732;2022-12-20T08:48:28;6.80;99.90
2571;DHT22;1295;51.130;6.732;2022-12-20T08:50:55;6.70;99.90
2571;DHT22;1295;51.130;6.732;2022-12-20T08:53:20;6.90;99.90
2571;DHT22;1295;51.130;6.732;2022-12-20T08:55:46;6.80;99.90
2571;DHT22;1295;51.130;6.732;2022-12-20T08:58:12;6.90;99.90
2571;DHT22;1295;51.130;6.732;2022-12-20T09:00:37;6.80;99.90
2571;DHT22;1295;51.130;6.732;2022-12-20T09:03:03;6.70;99.90
2571;DHT22;1295;51.130;6.732;2022-12-20T09:05:28;6.80;99.90
2571;DHT22;1295;51.130;6.732;2022-12-20T09:07:54;6.60;99.90
2571;DHT22;1295;51.130;6.732;2022-12-20T09:10:20;6.70;99.90
2571;DHT22;1295;51.130;6.732;2022-12-20T09:12:45;6.90;99.90
2571;DHT22;1295;51.130;6.732;2022-12-20T09:15:11;6.90;99.90
2571;DHT22;1295;51.130;6.732;2022-12-20T09:17:36;6.90;99.90
2571;DHT22;1295;51.130;6.732;2022-12-20T09:20:03;6.80;99.90
2571;DHT22;1295;51.130;6.732;2022-12-20T09:22:29;7.00;99.90
2571;DHT22;1295;51.130;6.732;2022-12-20T09:24:54;7.00;99.90
2571;DHT22;1295;51.130;6.732;2022-12-20T09:27:21;7.10;99.90
2571;DHT22;1295;51.130;6.732;2022-12-20T09:29:46;7.10;99.90
2571;DHT22;1295;51.130;6.732;2022-12-20T09:32:12;7.10;99.90
2571;DHT22;1295;51.130;6.732;2022-12-20T09:34:38;6.90;99.90
2571;DHT22;1295;51.130;6.732;2022-12-20T09:37:04;6.80;99.90
2571;DHT22;1295;51.130;6.732;2022-12-20T09:39:29;6.80;99.90
2571;DHT22;1295;51.130;6.732;2022-12-20T09:41:54;6.80;99.90
2571;DHT22;1295;51.130;6.732;2022-12-20T09:44:27;6.80;99.90
2571;DHT22;1295;51.130;6.732;2022-12-20T09:47:03;6.80;99.90
2571;DHT22;1295;51.130;6.732;2022-12-20T09:49:27;6.90;99.90
2571;DHT22;1295;51.130;6.732;2022-12-20T09:52:13;6.80;99.90
2571;DHT22;1295;51.130;6.732;2022-12-20T09:54:55;7.10;99.90
2571;DHT22;1295;51.130;6.732;2022-12-20T09:57:22;7.10;99.90
2571;DHT22;1295;51.130;6.732;2022-12-20T09:59:43;7.00;99.90
2571;DHT22;1295;51.130;6.732;2022-12-20T10:02:11;7.30;99.90
2571;DHT22;1295;51.130;6.732;2022-12-20T10:04:36;7.20;99.90
2571;DHT22;1295;51.130;6.732;2022-12-20T10:09:47;7.10;99.90
2571;DHT22;1295;51.130;6.732;2022-12-20T10:22:50;7.10;99.90
2571;DHT22;1295;51.130;6.732;2022-12-20T10:27:49;7.00;99.90
2571;DHT22;1295;51.130;6.732;2022-12-20T10:30:17;7.00;99.90
2571;DHT22;1295;51.130;6.732;2022-12-20T10:32:44;6.90;99.90
2571;DHT22;1295;51.130;6.732;2022-12-20T10:38:02;7.20;99.90
2571;DHT22;1295;51.130;6.732;2022-12-20T10:40:31;7.20;99.90
2571;DHT22;1295;51.130;6.732;2022-12-20T10:42:56;7.40;99.90
2571;DHT22;1295;51.130;6.732;2022-12-20T10:45:38;7.40;99.90
2571;DHT22;1295;51.130;6.732;2022-12-20T10:48:04;7.30;99.90
2571;DHT22;1295;51.130;6.732;2022-12-20T10:50:30;7.30;99.90
2571;DHT22;1295;51.130;6.732;2022-12-20T10:53:19;7.30;99.90
2571;DHT22;1295;51.130;6.732;2022-12-20T10:55:44;7.20;99.90
2571;DHT22;1295;51.130;6.732;2022-12-20T10:58:14;7.20;99.90
2571;DHT22;1295;51.130;6.732;2022-12-20T11:00:38;7.30;99.90
2571;DHT22;1295;51.130;6.732;2022-12-20T11:03:20;7.30;99.90
2571;DHT22;1295;51.130;6.732;2022-12-20T11:05:53;7.40;99.90
2571;DHT22;1295;51.130;6.732;2022-12-20T11:08:16;7.20;99.90
2571;DHT22;1295;51.130;6.732;2022-12-20T11:10:42;7.20;99.90
2571;DHT22;1295;51.130;6.732;2022-12-20T11:13:18;7.40;99.90
2571;DHT22;1295;51.130;6.732;2022-12-20T11:15:34;7.40;99.90
2571;DHT22;1295;51.130;6.732;2022-12-20T11:18:09;7.40;99.90
2571;DHT22;1295;51.130;6.732;2022-12-20T11:23:36;7.60;99.90
2571;DHT22;1295;51.130;6.732;2022-12-20T11:26:29;7.60;99.90
2571;DHT22;1295;51.130;6.732;2022-12-20T11:29:24;7.90;99.90
2571;DHT22;1295;51.130;6.732;2022-12-20T11:31:59;7.90;99.90
2571;DHT22;1295;51.130;6.732;2022-12-20T11:34:34;7.90;99.90
2571;DHT22;1295;51.130;6.732;2022-12-20T11:37:07;7.90;99.90
2571;DHT22;1295;51.130;6.732;2022-12-20T11:39:39;7.70;99.90
2571;DHT22;1295;51.130;6.732;2022-12-20T11:42:22;7.70;99.90
2571;DHT22;1295;51.130;6.732;2022-12-20T11:47:47;8.10;99.90
2571;DHT22;1295;51.130;6.732;2022-12-20T11:50:15;7.90;99.90
2571;DHT22;1295;51.130;6.732;2022-12-20T11:52:40;8.20;99.90
2571;DHT22;1295;51.130;6.732;2022-12-20T11:55:17;8.20;99.90
2571;DHT22;1295;51.130;6.732;2022-12-20T11:57:45;7.90;99.90
2571;DHT22;1295;51.130;6.732;2022-12-20T12:00:12;8.00;99.90
2571;DHT22;1295;51.130;6.732;2022-12-20T12:02:43;8.10;99.90
2571;DHT22;1295;51.130;6.732;2022-12-20T12:05:18;8.10;99.90
2571;DHT22;1295;51.130;6.732;2022-12-20T12:07:43;8.30;99.90
2571;DHT22;1295;51.130;6.732;2022-12-20T12:10:16;8.30;99.90
2571;DHT22;1295;51.130;6.732;2022-12-20T12:12:42;8.40;99.90
2571;DHT22;1295;51.130;6.732;2022-12-20T12:15:27;8.80;99.90
2571;DHT22;1295;51.130;6.732;2022-12-20T12:17:55;8.80;99.90
2571;DHT22;1295;51.130;6.732;2022-12-20T12:20:25;8.30;99.90
2571;DHT22;1295;51.130;6.732;2022-12-20T12:22:48;8.30;99.90
2571;DHT22;1295;51.130;6.732;2022-12-20T12:25:14;9.30;99.90
2571;DHT22;1295;51.130;6.732;2022-12-20T12:27:39;9.20;99.90
2571;DHT22;1295;51.130;6.732;2022-12-20T12:30:10;9.00;99.90
2571;DHT22;1295;51.130;6.732;2022-12-20T12:32:37;9.20;99.90
2571;DHT22;1295;51.130;6.732;2022-12-20T12:35:29;9.20;99.90
2571;DHT22;1295;51.130;6.732;2022-12-20T12:38:14;9.10;99.90
2571;DHT22;1295;51.130;6.732;2022-12-20T12:46:07;9.80;99.90
2571;DHT22;1295;51.130;6.732;2022-12-20T12:48:38;9.40;99.90
2571;DHT22;1295;51.130;6.732;2022-12-20T12:51:01;9.40;99.90
2571;DHT22;1295;51.130;6.732;2022-12-20T12:53:33;9.70;99.90
2571;DHT22;1295;51.130;6.732;2022-12-20T12:55:56;10.20;99.90
2571;DHT22;1295;51.130;6.732;2022-12-20T12:58:30;9.30;99.90
2571;DHT22;1295;51.130;6.732;2022-12-20T13:01:02;9.40;99.90
2571;DHT22;1295;51.130;6.732;2022-12-20T13:08:46;9.10;99.90
2571;DHT22;1295;51.130;6.732;2022-12-20T13:11:11;9.40;99.90
2571;DHT22;1295;51.130;6.732;2022-12-20T13:13:36;8.90;99.90
2571;DHT22;1295;51.130;6.732;2022-12-20T13:16:04;8.70;99.90
2571;DHT22;1295;51.130;6.732;2022-12-20T13:18:28;9.10;99.90
2571;DHT22;1295;51.130;6.732;2022-12-20T13:23:32;8.50;99.90
2571;DHT22;1295;51.130;6.732;2022-12-20T13:25:58;8.90;99.90
2571;DHT22;1295;51.130;6.732;2022-12-20T13:28:42;8.40;99.90
2571;DHT22;1295;51.130;6.732;2022-12-20T13:31:29;8.00;99.90
2571;DHT22;1295;51.130;6.732;2022-12-20T13:33:58;8.50;99.90
2571;DHT22;1295;51.130;6.732;2022-12-20T13:36:29;8.40;99.90
2571;DHT22;1295;51.130;6.732;2022-12-20T13:38:54;8.70;99.90
2571;DHT22;1295;51.130;6.732;2022-12-20T13:41:30;8.50;99.90
2571;DHT22;1295;51.130;6.732;2022-12-20T13:43:53;8.30;99.90
2571;DHT22;1295;51.130;6.732;2022-12-20T13:46:25;8.20;99.90
2571;DHT22;1295;51.130;6.732;2022-12-20T13:48:50;8.30;99.90
2571;DHT22;1295;51.130;6.732;2022-12-20T13:51:16;8.40;99.90
2571;DHT22;1295;51.130;6.732;2022-12-20T13:53:55;8.20;99.90
2571;DHT22;1295;51.130;6.732;2022-12-20T13:56:43;8.20;99.90
2571;DHT22;1295;51.130;6.732;2022-12-20T13:59:11;8.20;99.90
2571;DHT22;1295;51.130;6.732;2022-12-20T14:01:32;8.20;99.90
2571;DHT22;1295;51.130;6.732;2022-12-20T14:03:57;8.00;99.90
2571;DHT22;1295;51.130;6.732;2022-12-20T14:06:23;8.10;99.90
2571;DHT22;1295;51.130;6.732;2022-12-20T14:08:49;8.20;99.90
2571;DHT22;1295;51.130;6.732;2022-12-20T14:11:16;8.30;99.90
2571;DHT22;1295;51.130;6.732;2022-12-20T14:13:41;8.10;99.90
2571;DHT22;1295;51.130;6.732;2022-12-20T14:16:12;8.10;99.90
2571;DHT22;1295;51.130;6.732;2022-12-20T14:18:36;8.10;99.90
2571;DHT22;1295;51.130;6.732;2022-12-20T14:21:02;8.10;99.90
2571;DHT22;1295;51.130;6.732;2022-12-20T14:23:36;8.20;99.90
2571;DHT22;1295;51.130;6.732;2022-12-20T14:26:04;8.10;99.90
2571;DHT22;1295;51.130;6.732;2022-12-20T14:28:46;8.10;99.90
2571;DHT22;1295;51.130;6.732;2022-12-20T14:31:23;8.10;99.90
2571;DHT22;1295;51.130;6.732;2022-12-20T14:33:48;8.10;99.90
2571;DHT22;1295;51.130;6.732;2022-12-20T14:36:19;8.20;99.90
2571;DHT22;1295;51.130;6.732;2022-12-20T14:38:44;8.00;99.90
2571;DHT22;1295;51.130;6.732;2022-12-20T14:43:53;8.10;99.90
2571;DHT22;1295;51.130;6.732;2022-12-20T14:46:14;8.10;99.90
2571;DHT22;1295;51.130;6.732;2022-12-20T14:48:40;8.10;99.90
2571;DHT22;1295;51.130;6.732;2022-12-20T14:51:05;8.10;99.90
2571;DHT22;1295;51.130;6.732;2022-12-20T14:53:31;8.10;99.90
2571;DHT22;1295;51.130;6.732;2022-12-20T14:55:57;8.10;99.90
2571;DHT22;1295;51.130;6.732;2022-12-20T14:58:30;8.00;99.90
2571;DHT22;1295;51.130;6.732;2022-12-20T15:00:59;8.10;99.90
2571;DHT22;1295;51.130;6.732;2022-12-20T15:03:23;8.10;99.90
2571;DHT22;1295;51.130;6.732;2022-12-20T15:05:50;8.00;99.90
2571;DHT22;1295;51.130;6.732;2022-12-20T15:08:36;8.00;99.90
2571;DHT22;1295;51.130;6.732;2022-12-20T15:13:33;8.10;99.90
2571;DHT22;1295;51.130;6.732;2022-12-20T15:16:00;8.00;99.90
2571;DHT22;1295;51.130;6.732;2022-12-20T15:18:26;7.90;99.90
2571;DHT22;1295;51.130;6.732;2022-12-20T15:20:57;7.90;99.90
2571;DHT22;1295;51.130;6.732;2022-12-20T15:23:19;7.90;99.90
2571;DHT22;1295;51.130;6.732;2022-12-20T15:25:45;8.00;99.90
2571;DHT22;1295;51.130;6.732;2022-12-20T15:28:13;8.00;99.90
2571;DHT22;1295;51.130;6.732;2022-12-20T15:30:37;8.00;99.90
2571;DHT22;1295;51.130;6.732;2022-12-20T15:33:03;8.10;99.90
2571;DHT22;1295;51.130;6.732;2022-12-20T15:35:29;8.20;99.90
2571;DHT22;1295;51.130;6.732;2022-12-20T15:37:54;8.10;99.90
2571;DHT22;1295;51.130;6.732;2022-12-20T15:40:20;8.10;99.90
2571;DHT22;1295;51.130;6.732;2022-12-20T15:42:46;8.20;99.90
2571;DHT22;1295;51.130;6.732;2022-12-20T15:45:12;8.00;99.90
2571;DHT22;1295;51.130;6.732;2022-12-20T15:47:38;8.00;99.90
2571;DHT22;1295;51.130;6.732;2022-12-20T15:50:05;8.40;99.90
2571;DHT22;1295;51.130;6.732;2022-12-20T15:52:31;8.30;99.90
2571;DHT22;1295;51.130;6.732;2022-12-20T15:54:57;8.20;99.90
2571;DHT22;1295;51.130;6.732;2022-12-20T15:57:23;8.20;99.90
2571;DHT22;1295;51.130;6.732;2022-12-20T15:59:48;8.00;99.90
2571;DHT22;1295;51.130;6.732;2022-12-20T16:02:19;7.90;99.90
2571;DHT22;1295;51.130;6.732;2022-12-20T16:04:42;8.00;99.90
2571;DHT22;1295;51.130;6.732;2022-12-20T16:07:09;8.30;99.90
2571;DHT22;1295;51.130;6.732;2022-12-20T16:09:34;8.30;99.90
2571;DHT22;1295;51.130;6.732;2022-12-20T16:12:00;8.10;99.90
2571;DHT22;1295;51.130;6.732;2022-12-20T16:14:25;8.10;99.90
2571;DHT22;1295;51.130;6.732;2022-12-20T16:16:51;8.40;99.90
2571;DHT22;1295;51.130;6.732;2022-12-20T16:19:17;8.20;99.90
2571;DHT22;1295;51.130;6.732;2022-12-20T16:21:44;8.10;99.90
2571;DHT22;1295;51.130;6.732;2022-12-20T16:24:10;8.10;99.90
2571;DHT22;1295;51.130;6.732;2022-12-20T16:26:35;8.20;99.90
2571;DHT22;1295;51.130;6.732;2022-12-20T16:29:00;8.20;99.90
2571;DHT22;1295;51.130;6.732;2022-12-20T16:31:28;8.10;99.90
2571;DHT22;1295;51.130;6.732;2022-12-20T16:33:54;8.10;99.90
2571;DHT22;1295;51.130;6.732;2022-12-20T16:36:19;8.10;99.90
2571;DHT22;1295;51.130;6.732;2022-12-20T16:38:44;8.10;99.90
2571;DHT22;1295;51.130;6.732;2022-12-20T16:41:11;8.10;99.90
2571;DHT22;1295;51.130;6.732;2022-12-20T16:43:36;8.10;99.90
2571;DHT22;1295;51.130;6.732;2022-12-20T16:46:02;8.10;99.90
2571;DHT22;1295;51.130;6.732;2022-12-20T16:48:28;8.00;99.90
2571;DHT22;1295;51.130;6.732;2022-12-20T16:50:53;8.10;99.90
2571;DHT22;1295;51.130;6.732;2022-12-20T16:53:19;8.20;99.90
2571;DHT22;1295;51.130;6.732;2022-12-20T16:55:44;8.10;99.90
2571;DHT22;1295;51.130;6.732;2022-12-20T16:58:10;8.10;99.90
2571;DHT22;1295;51.130;6.732;2022-12-20T17:00:36;8.10;99.90
2571;DHT22;1295;51.130;6.732;2022-12-20T17:03:01;8.20;99.90
2571;DHT22;1295;51.130;6.732;2022-12-20T17:05:29;8.20;99.90
2571;DHT22;1295;51.130;6.732;2022-12-20T17:07:53;8.30;99.90
2571;DHT22;1295;51.130;6.732;2022-12-20T17:10:19;8.40;99.90